sensor_id;sensor_type;location;lat;lon;timestamp;P1;durP1;ratioP1;P2;durP2;ratioP2
21899;SDS011;11114;50.658;12.704;2023-12-28T15:29:39;16.92;;;15.73;;
21899;SDS011;11114;50.658;12.704;2023-12-28T15:32:27;17.48;;;16.27;;
21899;SDS011;11114;50.658;12.704;2023-12-28T15:35:14;17.05;;;15.75;;
21899;SDS011;11114;50.658;12.704;2023-12-28T15:38:03;17.00;;;15.80;;
21899;SDS011;11114;50.658;12.704;2023-12-28T15:40:51;16.73;;;15.63;;
21899;SDS011;11114;50.658;12.704;2023-12-28T15:43:38;16.02;;;14.85;;
21899;SDS011;11114;50.658;12.704;2023-12-28T15:49:24;16.90;;;15.70;;
21899;SDS011;11114;50.658;12.704;2023-12-28T15:52:11;16.95;;;15.75;;
21899;SDS011;11114;50.658;12.704;2023-12-28T15:54:58;16.25;;;15.15;;
21899;SDS011;11114;50.658;12.704;2023-12-28T15:57:44;15.98;;;14.88;;
21899;SDS011;11114;50.658;12.704;2023-12-28T16:00:31;15.98;;;14.77;;
21899;SDS011;11114;50.658;12.704;2023-12-28T16:03:18;16.48;;;15.38;;
21899;SDS011;11114;50.658;12.704;2023-12-28T16:06:07;15.30;;;14.20;;
21899;SDS011;11114;50.658;12.704;2023-12-28T16:08:53;16.67;;;15.48;;
21899;SDS011;11114;50.658;12.704;2023-12-28T16:11:40;15.70;;;14.60;;
21899;SDS011;11114;50.658;12.704;2023-12-28T16:14:26;15.55;;;14.35;;
21899;SDS011;11114;50.658;12.704;2023-12-28T16:17:13;15.75;;;14.55;;
21899;SDS011;11114;50.658;12.704;2023-12-28T16:20:00;15.85;;;14.75;;
21899;SDS011;11114;50.658;12.704;2023-12-28T16:22:47;17.05;;;15.75;;
21899;SDS011;11114;50.658;12.704;2023-12-28T16:25:34;16.48;;;15.38;;
21899;SDS011;11114;50.658;12.704;2023-12-28T16:28:21;16.83;;;15.63;;
21899;SDS011;11114;50.658;12.704;2023-12-28T16:31:07;17.10;;;15.90;;
21899;SDS011;11114;50.658;12.704;2023-12-28T16:33:55;16.95;;;15.75;;
21899;SDS011;11114;50.658;12.704;2023-12-28T16:36:44;16.35;;;15.15;;
21899;SDS011;11114;50.658;12.704;2023-12-28T16:39:31;15.90;;;14.77;;
21899;SDS011;11114;50.658;12.704;2023-12-28T16:42:19;16.92;;;15.63;;
21899;SDS011;11114;50.658;12.704;2023-12-28T16:45:06;17.13;;;15.77;;
21899;SDS011;11114;50.658;12.704;2023-12-28T16:47:53;17.08;;;15.88;;
21899;SDS011;11114;50.658;12.704;2023-12-28T16:54:43;16.33;;;15.05;;
21899;SDS011;11114;50.658;12.704;2023-12-28T16:57:40;16.92;;;15.73;;
21899;SDS011;11114;50.658;12.704;2023-12-28T17:00:28;17.75;;;16.45;;
21899;SDS011;11114;50.658;12.704;2023-12-28T17:03:16;17.40;;;15.85;;
21899;SDS011;11114;50.658;12.704;2023-12-28T17:06:04;16.55;;;15.40;;
21899;SDS011;11114;50.658;12.704;2023-12-28T17:08:51;17.33;;;16.13;;
21899;SDS011;11114;50.658;12.704;2023-12-28T17:11:40;16.20;;;15.10;;
21899;SDS011;11114;50.658;12.704;2023-12-28T17:14:31;16.83;;;15.63;;
21899;SDS011;11114;50.658;12.704;2023-12-28T17:17:22;16.70;;;15.50;;
21899;SDS011;11114;50.658;12.704;2023-12-28T17:20:11;16.20;;;15.00;;
21899;SDS011;11114;50.658;12.704;2023-12-28T17:23:08;16.17;;;14.98;;
21899;SDS011;11114;50.658;12.704;2023-12-28T17:26:02;17.00;;;15.80;;
21899;SDS011;11114;50.658;12.704;2023-12-28T17:31:47;17.15;;;15.98;;
21899;SDS011;11114;50.658;12.704;2023-12-28T17:34:37;17.40;;;16.10;;
21899;SDS011;11114;50.658;12.704;2023-12-28T17:37:54;17.77;;;16.50;;
21899;SDS011;11114;50.658;12.704;2023-12-28T17:40:47;17.42;;;16.02;;
21899;SDS011;11114;50.658;12.704;2023-12-28T17:43:39;17.27;;;15.98;;
21899;SDS011;11114;50.658;12.704;2023-12-28T17:57:17;17.08;;;15.88;;
21899;SDS011;11114;50.658;12.704;2023-12-28T18:00:04;17.02;;;15.63;;
21899;SDS011;11114;50.658;12.704;2023-12-28T18:02:53;17.50;;;16.10;;
21899;SDS011;11114;50.658;12.704;2023-12-28T18:05:41;17.27;;;16.02;;
21899;SDS011;11114;50.658;12.704;2023-12-28T18:08:38;17.42;;;16.02;;
21899;SDS011;11114;50.658;12.704;2023-12-28T18:11:25;17.67;;;16.40;;
21899;SDS011;11114;50.658;12.704;2023-12-28T18:14:12;17.20;;;15.93;;
21899;SDS011;11114;50.658;12.704;2023-12-28T18:16:59;16.58;;;15.35;;
21899;SDS011;11114;50.658;12.704;2023-12-28T18:19:45;16.65;;;15.55;;
21899;SDS011;11114;50.658;12.704;2023-12-28T18:22:32;16.63;;;15.40;;
21899;SDS011;11114;50.658;12.704;2023-12-28T18:25:18;16.92;;;15.63;;
21899;SDS011;11114;50.658;12.704;2023-12-28T18:28:05;17.02;;;15.80;;
21899;SDS011;11114;50.658;12.704;2023-12-28T18:30:51;17.15;;;15.85;;
21899;SDS011;11114;50.658;12.704;2023-12-28T18:33:38;16.98;;;15.75;;
21899;SDS011;11114;50.658;12.704;2023-12-28T18:36:26;16.98;;;15.82;;
21899;SDS011;11114;50.658;12.704;2023-12-28T18:39:12;17.27;;;16.05;;
21899;SDS011;11114;50.658;12.704;2023-12-28T18:42:01;17.30;;;16.10;;
21899;SDS011;11114;50.658;12.704;2023-12-28T18:44:49;17.05;;;15.75;;
21899;SDS011;11114;50.658;12.704;2023-12-28T18:47:35;18.25;;;16.75;;
21899;SDS011;11114;50.658;12.704;2023-12-28T18:50:22;17.27;;;16.00;;
21899;SDS011;11114;50.658;12.704;2023-12-28T18:53:10;16.92;;;15.82;;
21899;SDS011;11114;50.658;12.704;2023-12-28T18:55:58;17.35;;;16.15;;
21899;SDS011;11114;50.658;12.704;2023-12-28T18:58:47;17.63;;;16.30;;
21899;SDS011;11114;50.658;12.704;2023-12-28T19:02:29;17.77;;;16.48;;
21899;SDS011;11114;50.658;12.704;2023-12-28T19:05:15;17.15;;;15.95;;
21899;SDS011;11114;50.658;12.704;2023-12-28T19:08:04;16.65;;;15.45;;
21899;SDS011;11114;50.658;12.704;2023-12-28T19:10:53;17.88;;;16.58;;
21899;SDS011;11114;50.658;12.704;2023-12-28T19:13:41;17.90;;;16.58;;
21899;SDS011;11114;50.658;12.704;2023-12-28T19:16:28;17.58;;;16.27;;
21899;SDS011;11114;50.658;12.704;2023-12-28T19:19:15;17.48;;;16.17;;
21899;SDS011;11114;50.658;12.704;2023-12-28T19:22:02;17.40;;;16.10;;
21899;SDS011;11114;50.658;12.704;2023-12-28T19:24:48;17.20;;;16.00;;
21899;SDS011;11114;50.658;12.704;2023-12-28T19:27:35;17.60;;;16.40;;
21899;SDS011;11114;50.658;12.704;2023-12-28T19:30:22;17.85;;;16.65;;
21899;SDS011;11114;50.658;12.704;2023-12-28T19:33:09;17.55;;;16.25;;
21899;SDS011;11114;50.658;12.704;2023-12-28T19:35:55;17.88;;;16.58;;
21899;SDS011;11114;50.658;12.704;2023-12-28T19:38:43;17.30;;;16.00;;
21899;SDS011;11114;50.658;12.704;2023-12-28T19:41:28;17.25;;;16.05;;
21899;SDS011;11114;50.658;12.704;2023-12-28T19:44:14;16.92;;;15.73;;
21899;SDS011;11114;50.658;12.704;2023-12-28T19:47:02;16.67;;;15.50;;
21899;SDS011;11114;50.658;12.704;2023-12-28T19:49:50;16.95;;;15.75;;
21899;SDS011;11114;50.658;12.704;2023-12-28T19:52:37;17.00;;;15.80;;
21899;SDS011;11114;50.658;12.704;2023-12-28T19:55:25;16.90;;;15.70;;
21899;SDS011;11114;50.658;12.704;2023-12-28T19:58:13;17.25;;;15.95;;
21899;SDS011;11114;50.658;12.704;2023-12-28T20:00:59;17.60;;;16.30;;
21899;SDS011;11114;50.658;12.704;2023-12-28T20:03:46;16.90;;;15.70;;
21899;SDS011;11114;50.658;12.704;2023-12-28T20:06:33;17.05;;;15.85;;
21899;SDS011;11114;50.658;12.704;2023-12-28T20:09:19;16.95;;;15.75;;
21899;SDS011;11114;50.658;12.704;2023-12-28T20:12:07;17.80;;;16.60;;
21899;SDS011;11114;50.658;12.704;2023-12-28T20:14:54;18.02;;;16.73;;
21899;SDS011;11114;50.658;12.704;2023-12-28T20:17:40;17.50;;;16.27;;
21899;SDS011;11114;50.658;12.704;2023-12-28T20:20:27;16.90;;;15.70;;
21899;SDS011;11114;50.658;12.704;2023-12-28T20:23:14;16.98;;;15.77;;
21899;SDS011;11114;50.658;12.704;2023-12-28T20:26:00;17.30;;;16.00;;
21899;SDS011;11114;50.658;12.704;2023-12-28T20:28:50;17.58;;;16.10;;
21899;SDS011;11114;50.658;12.704;2023-12-28T20:31:37;16.90;;;15.70;;
21899;SDS011;11114;50.658;12.704;2023-12-28T20:34:24;16.65;;;15.52;;
21899;SDS011;11114;50.658;12.704;2023-12-28T20:37:10;17.27;;;16.08;;
21899;SDS011;11114;50.658;12.704;2023-12-28T20:39:58;16.85;;;15.57;;
21899;SDS011;11114;50.658;12.704;2023-12-28T20:42:44;17.08;;;15.75;;
21899;SDS011;11114;50.658;12.704;2023-12-28T20:45:30;16.58;;;15.48;;
21899;SDS011;11114;50.658;12.704;2023-12-28T20:48:17;16.30;;;15.20;;
21899;SDS011;11114;50.658;12.704;2023-12-28T20:51:07;16.45;;;15.32;;
21899;SDS011;11114;50.658;12.704;2023-12-28T20:53:54;16.75;;;15.57;;
21899;SDS011;11114;50.658;12.704;2023-12-28T20:56:41;17.58;;;16.38;;
21899;SDS011;11114;50.658;12.704;2023-12-28T20:59:28;17.20;;;16.10;;
21899;SDS011;11114;50.658;12.704;2023-12-28T21:02:15;17.38;;;16.27;;
21899;SDS011;11114;50.658;12.704;2023-12-28T21:05:03;16.50;;;15.20;;
21899;SDS011;11114;50.658;12.704;2023-12-28T21:07:50;15.40;;;14.40;;
21899;SDS011;11114;50.658;12.704;2023-12-28T21:10:36;16.55;;;15.32;;
21899;SDS011;11114;50.658;12.704;2023-12-28T21:13:24;16.73;;;15.52;;
21899;SDS011;11114;50.658;12.704;2023-12-28T21:16:13;16.27;;;15.07;;
21899;SDS011;11114;50.658;12.704;2023-12-28T21:18:59;16.58;;;15.50;;
21899;SDS011;11114;50.658;12.704;2023-12-28T21:21:46;16.70;;;15.60;;
21899;SDS011;11114;50.658;12.704;2023-12-28T21:24:33;16.40;;;15.30;;
21899;SDS011;11114;50.658;12.704;2023-12-28T21:27:23;16.85;;;15.75;;
21899;SDS011;11114;50.658;12.704;2023-12-28T21:30:10;17.60;;;16.50;;
21899;SDS011;11114;50.658;12.704;2023-12-28T21:32:57;17.55;;;16.45;;
21899;SDS011;11114;50.658;12.704;2023-12-28T21:35:43;19.80;;;18.60;;
21899;SDS011;11114;50.658;12.704;2023-12-28T21:38:29;19.70;;;18.40;;
21899;SDS011;11114;50.658;12.704;2023-12-28T21:41:17;19.50;;;18.20;;
21899;SDS011;11114;50.658;12.704;2023-12-28T21:44:03;19.63;;;18.33;;
21899;SDS011;11114;50.658;12.704;2023-12-28T21:46:49;17.20;;;16.00;;
21899;SDS011;11114;50.658;12.704;2023-12-28T21:49:37;16.88;;;15.68;;
21899;SDS011;11114;50.658;12.704;2023-12-28T21:52:23;17.33;;;16.13;;
21899;SDS011;11114;50.658;12.704;2023-12-28T21:55:15;17.10;;;15.90;;
21899;SDS011;11114;50.658;12.704;2023-12-28T21:58:05;17.20;;;15.98;;
21899;SDS011;11114;50.658;12.704;2023-12-28T22:01:01;17.30;;;16.13;;
21899;SDS011;11114;50.658;12.704;2023-12-28T22:03:50;17.05;;;15.75;;
21899;SDS011;11114;50.658;12.704;2023-12-28T22:06:37;17.20;;;15.95;;
21899;SDS011;11114;50.658;12.704;2023-12-28T22:09:24;18.08;;;16.60;;
21899;SDS011;11114;50.658;12.704;2023-12-28T22:12:11;18.80;;;17.50;;
21899;SDS011;11114;50.658;12.704;2023-12-28T22:14:58;18.88;;;17.58;;
21899;SDS011;11114;50.658;12.704;2023-12-28T22:17:45;18.67;;;17.48;;
21899;SDS011;11114;50.658;12.704;2023-12-28T22:20:32;19.27;;;17.88;;
21899;SDS011;11114;50.658;12.704;2023-12-28T22:23:18;17.60;;;16.40;;
21899;SDS011;11114;50.658;12.704;2023-12-28T22:26:05;17.40;;;16.30;;
21899;SDS011;11114;50.658;12.704;2023-12-28T22:28:54;18.60;;;17.20;;
21899;SDS011;11114;50.658;12.704;2023-12-28T22:31:40;17.98;;;16.80;;
21899;SDS011;11114;50.658;12.704;2023-12-28T22:34:30;17.80;;;16.50;;
21899;SDS011;11114;50.658;12.704;2023-12-28T22:37:17;18.08;;;16.77;;
21899;SDS011;11114;50.658;12.704;2023-12-28T22:40:03;18.17;;;16.92;;
21899;SDS011;11114;50.658;12.704;2023-12-28T22:42:52;19.08;;;17.58;;
21899;SDS011;11114;50.658;12.704;2023-12-28T22:45:39;18.05;;;16.70;;
21899;SDS011;11114;50.658;12.704;2023-12-28T22:48:25;17.90;;;16.67;;
21899;SDS011;11114;50.658;12.704;2023-12-28T22:51:12;18.00;;;16.70;;
21899;SDS011;11114;50.658;12.704;2023-12-28T22:53:58;17.90;;;16.60;;
21899;SDS011;11114;50.658;12.704;2023-12-28T22:56:44;17.50;;;16.17;;
21899;SDS011;11114;50.658;12.704;2023-12-28T22:59:31;17.50;;;16.25;;
21899;SDS011;11114;50.658;12.704;2023-12-28T23:02:18;18.60;;;17.13;;
21899;SDS011;11114;50.658;12.704;2023-12-28T23:05:05;18.10;;;16.70;;
21899;SDS011;11114;50.658;12.704;2023-12-28T23:07:51;17.98;;;16.67;;
21899;SDS011;11114;50.658;12.704;2023-12-28T23:10:37;18.15;;;16.95;;
21899;SDS011;11114;50.658;12.704;2023-12-28T23:13:28;18.20;;;16.90;;
21899;SDS011;11114;50.658;12.704;2023-12-28T23:16:15;17.95;;;16.65;;
21899;SDS011;11114;50.658;12.704;2023-12-28T23:19:01;17.48;;;16.27;;
21899;SDS011;11114;50.658;12.704;2023-12-28T23:21:48;17.20;;;16.00;;
21899;SDS011;11114;50.658;12.704;2023-12-28T23:24:38;17.63;;;16.40;;
21899;SDS011;11114;50.658;12.704;2023-12-28T23:27:31;18.00;;;16.80;;
21899;SDS011;11114;50.658;12.704;2023-12-28T23:30:18;17.92;;;16.73;;
21899;SDS011;11114;50.658;12.704;2023-12-28T23:33:05;17.98;;;16.77;;
21899;SDS011;11114;50.658;12.704;2023-12-28T23:35:51;17.80;;;16.60;;
21899;SDS011;11114;50.658;12.704;2023-12-28T23:38:37;17.98;;;16.67;;
21899;SDS011;11114;50.658;12.704;2023-12-28T23:41:24;17.08;;;15.98;;
21899;SDS011;11114;50.658;12.704;2023-12-28T23:44:11;16.88;;;15.77;;
21899;SDS011;11114;50.658;12.704;2023-12-28T23:46:58;16.60;;;15.50;;
21899;SDS011;11114;50.658;12.704;2023-12-28T23:49:44;17.02;;;15.93;;
21899;SDS011;11114;50.658;12.704;2023-12-28T23:52:31;16.73;;;15.63;;
21899;SDS011;11114;50.658;12.704;2023-12-28T23:55:18;16.85;;;15.75;;
21899;SDS011;11114;50.658;12.704;2023-12-28T23:58:04;16.17;;;15.18;;
